Sanborn, North Dakota
Current Conditions -  °F | °C
As of 1:55 PM on Monday 22 Dec 2014 (Local Time) from KBAC Reporting Station
Light Rain Light Rain  
Wind Chill: 31°   Ceiling: 200
Heat Index: 36°   Visibility: 0mi
Dew Point: 36°   Wind: 6mph
Humidity: 100%   Direction: 70°ENE
Pressure: 29.47"   Gusts: NA
Location:  46.94°N, 98.22°W
Report Text: KBAC 221955Z AUTO 07005KT M1/4SM -RA OVC002 02/02 A2947 RMK AO2
Loading
Personal Weather Stations






























Interactive Weather Map New forecast layout! Learn more

10-Day Weather Forecast

Advertisements
Track Severe Weather on mobile